Time;durP1;ratioP1;P1;durP2;ratioP2;P2;SDS_P1;SDS_P2;PMS_P1;PMS_P2;Temp;Humidity;BMP_temperature;BMP_pressure;BME280_temperature;BME280_humidity;BME280_pressure;Samples;Min_cycle;Max_cycle;Signal;HPM_P1;HPM_P2
2020/12/22 00:00:25;;;;;;;25.55;23.08;;;;;;;4.27;70.39;100031.00;10493208;28;20040;-81
2020/12/22 00:05:27;;;;;;;24.88;22.58;;;;;;;4.50;69.60;100031.69;10476097;28;20120;-83
2020/12/22 00:10:28;;;;;;;25.70;23.10;;;;;;;4.54;69.51;100019.53;10492532;28;20040;-83
2020/12/22 00:15:29;;;;;;;24.08;22.08;;;;;;;4.53;69.31;100012.59;10492013;28;20067;-79
2020/12/22 00:20:41;;;;;;;26.10;23.58;;;;;;;4.58;69.23;100015.19;10491876;28;20021;-84
2020/12/22 00:25:47;;;;;;;24.67;22.52;;;;;;;4.71;68.62;99993.38;10475622;28;20052;-83
2020/12/22 00:30:49;;;;;;;23.07;21.17;;;;;;;4.74;68.77;99994.22;10491473;28;20041;-80
2020/12/22 00:35:51;;;;;;;25.20;22.83;;;;;;;4.62;68.95;99978.69;10491580;28;20095;-81
2020/12/22 00:40:52;;;;;;;23.90;21.67;;;;;;;4.86;68.49;99977.59;10490975;28;20131;-81
2020/12/22 00:45:53;;;;;;;23.50;21.35;;;;;;;4.83;68.70;99967.22;10474009;28;20044;-83
2020/12/22 00:51:01;;;;;;;22.95;20.98;;;;;;;4.66;69.32;99959.56;10490693;28;20029;-81
2020/12/22 00:56:04;;;;;;;22.95;20.98;;;;;;;4.73;69.41;99958.63;10490713;28;20052;-82
2020/12/22 01:01:10;;;;;;;24.43;22.03;;;;;;;4.84;68.83;99962.88;10469752;28;20044;-80
2020/12/22 01:06:12;;;;;;;21.77;19.88;;;;;;;4.86;69.18;99961.09;10488222;28;20029;-80
2020/12/22 01:11:13;;;;;;;11.32;10.18;;;;;;;5.53;68.61;99945.59;10516745;22;20550;-83
2020/12/22 01:16:14;;;;;;;9.00;8.20;;;;;;;6.25;66.54;99944.59;10544195;28;20051;-80
2020/12/22 01:21:21;;;;;;;11.38;10.48;;;;;;;6.05;66.96;99941.44;10563979;28;20542;-80
2020/12/22 01:26:24;;;;;;;12.90;11.82;;;;;;;6.20;66.03;99940.34;10579239;28;20060;-80
2020/12/22 01:31:27;;;;;;;13.30;12.20;;;;;;;5.90;66.49;99937.28;10566989;28;20040;-82
2020/12/22 01:36:30;;;;;;;15.25;13.95;;;;;;;5.88;66.15;99933.81;10569313;28;20092;-81
2020/12/22 01:41:33;;;;;;;18.83;17.25;;;;;;;5.61;66.28;99926.38;10564239;28;20045;-81
2020/12/22 01:46:38;;;;;;;22.88;20.88;;;;;;;4.91;67.24;99904.63;10582167;28;20048;-81
2020/12/22 01:51:45;;;;;;;25.43;23.27;;;;;;;4.79;67.12;99918.66;10586436;28;20032;-80
2020/12/22 01:56:47;;;;;;;23.77;21.35;;;;;;;4.81;67.19;99899.50;10550110;28;20036;-82
2020/12/22 02:01:50;;;;;;;21.48;19.67;;;;;;;4.82;67.12;99895.16;10563154;28;20036;-83
2020/12/22 02:06:52;;;;;;;20.02;18.38;;;;;;;4.70;67.62;99854.50;10563364;28;20126;-81
2020/12/22 02:11:53;;;;;;;18.92;17.38;;;;;;;4.73;67.86;99854.47;10562133;28;20155;-82
2020/12/22 02:16:54;;;;;;;18.95;17.42;;;;;;;4.78;67.92;99829.25;10544956;28;20044;-80
2020/12/22 02:21:59;;;;;;;18.80;17.30;;;;;;;4.72;68.33;99857.09;10544723;28;20508;-81
2020/12/22 02:27:03;;;;;;;19.85;18.15;;;;;;;4.77;68.60;99850.09;10561089;28;20093;-81
2020/12/22 02:32:04;;;;;;;19.42;17.92;;;;;;;4.70;69.32;99845.84;10543752;28;20040;-82
2020/12/22 02:37:05;;;;;;;19.58;17.98;;;;;;;4.74;70.46;99839.72;10564803;28;20047;-80
2020/12/22 02:42:07;;;;;;;22.10;19.83;;;;;;;4.67;71.42;99815.47;10555287;28;20058;-82
2020/12/22 02:47:15;;;;;;;21.02;19.23;;;;;;;4.83;71.84;99810.13;10554151;28;20505;-81
2020/12/22 02:52:17;;;;;;;21.15;19.45;;;;;;;4.78;72.47;99810.13;10567743;28;20050;-80
2020/12/22 02:57:18;;;;;;;21.20;19.30;;;;;;;4.83;72.69;99792.75;10568259;28;20469;-81
2020/12/22 03:02:19;;;;;;;21.67;19.80;;;;;;;4.75;73.58;99784.16;10566573;28;20111;-81
2020/12/22 03:07:20;;;;;;;20.73;18.92;;;;;;;4.80;73.61;99788.41;10564677;28;20096;-81
2020/12/22 03:12:21;;;;;;;19.98;18.38;;;;;;;4.80;74.00;99780.59;10563106;28;20043;-80
2020/12/22 03:17:23;;;;;;;20.00;18.30;;;;;;;4.84;73.99;99768.41;10546022;28;20058;-81
2020/12/22 03:22:35;;;;;;;23.77;21.52;;;;;;;4.53;75.50;99771.38;10568148;28;20085;-81
2020/12/22 03:27:37;;;;;;;20.77;18.85;;;;;;;4.83;74.29;99760.63;10581026;28;20048;-81
2020/12/22 03:32:39;;;;;;;22.00;20.00;;;;;;;4.86;74.52;99743.19;10578589;28;20059;-80
2020/12/22 03:37:41;;;;;;;20.17;18.30;;;;;;;4.88;74.75;99732.78;10566367;28;20048;-80
2020/12/22 03:42:42;;;;;;;20.05;18.25;;;;;;;4.49;75.86;99732.41;10553197;28;20055;-81
2020/12/22 03:47:43;;;;;;;19.17;17.58;;;;;;;4.52;75.72;99730.63;10534079;28;20136;-80
2020/12/22 03:52:59;;;;;;;19.08;17.58;;;;;;;4.50;75.91;99721.97;10575889;28;20036;-80
2020/12/22 03:58:00;;;;;;;16.77;15.40;;;;;;;4.49;75.97;99712.44;10562348;28;20048;-81
2020/12/22 04:03:02;;;;;;;17.88;16.38;;;;;;;4.64;76.00;99713.97;10545991;28;20075;-81
2020/12/22 04:08:04;;;;;;;16.85;15.23;;;;;;;4.75;75.54;99714.72;10564513;28;20180;-81
2020/12/22 04:13:06;;;;;;;16.05;14.70;;;;;;;4.51;76.38;99713.25;10566873;28;20048;-79
2020/12/22 04:18:07;;;;;;;14.75;13.52;;;;;;;4.66;76.27;99698.34;10569236;28;20055;-79
2020/12/22 04:23:14;;;;;;;14.57;13.38;;;;;;;4.60;76.89;99690.59;10582385;28;20028;-79
2020/12/22 04:28:15;;;;;;;13.38;12.15;;;;;;;4.65;76.55;99678.38;10591366;28;20143;-80
2020/12/22 04:33:17;;;;;;;11.57;10.68;;;;;;;4.56;76.77;99674.19;10591453;28;20040;-80
2020/12/22 04:38:18;;;;;;;11.98;11.00;;;;;;;4.79;77.11;99655.66;10570757;28;20100;-79
2020/12/22 04:43:21;;;;;;;10.88;9.98;;;;;;;4.70;77.43;99672.25;10566714;28;20065;-80
2020/12/22 04:48:24;;;;;;;8.85;8.10;;;;;;;4.94;76.84;99665.81;10558670;28;20111;-80
2020/12/22 04:53:33;;;;;;;9.07;8.27;;;;;;;5.01;76.94;99664.00;10558574;28;20032;-79
2020/12/22 04:58:35;;;;;;;8.90;8.20;;;;;;;4.94;76.79;99676.25;10565176;28;20075;-80
2020/12/22 05:03:37;;;;;;;8.73;8.02;;;;;;;5.00;76.62;99685.69;10544086;28;20040;-79
2020/12/22 05:08:38;;;;;;;9.68;8.77;;;;;;;4.96;76.86;99686.66;10542453;28;20074;-79
2020/12/22 05:13:40;;;;;;;10.27;9.45;;;;;;;4.87;77.34;99677.22;10561095;28;20036;-79
2020/12/22 05:18:41;;;;;;;9.73;9.02;;;;;;;5.00;77.05;99681.38;10560627;28;20036;-79
2020/12/22 05:23:54;;;;;;;10.27;9.48;;;;;;;5.31;76.32;99673.06;10559301;28;20047;-79
2020/12/22 05:28:56;;;;;;;10.73;9.82;;;;;;;5.14;76.71;99649.03;10540771;28;20055;-79
2020/12/22 05:33:57;;;;;;;10.50;9.70;;;;;;;4.85;77.30;99645.13;10542476;28;20052;-79
2020/12/22 05:38:59;;;;;;;10.60;9.70;;;;;;;4.94;77.81;99664.97;10544213;28;20072;-79
2020/12/22 05:44:00;;;;;;;10.77;9.98;;;;;;;4.97;77.69;99660.56;10562485;28;20055;-80
2020/12/22 05:49:04;;;;;;;9.95;9.15;;;;;;;4.87;77.90;99645.09;10558260;28;20064;-80
2020/12/22 05:54:16;;;;;;;9.10;8.40;;;;;;;5.15;77.19;99642.94;10556846;28;20074;-80
2020/12/22 05:59:19;;;;;;;8.18;7.55;;;;;;;5.23;76.97;99643.69;10558286;28;20044;-80
2020/12/22 06:04:25;;;;;;;7.75;6.90;;;;;;;5.34;77.00;99635.69;10558007;28;20039;-79
2020/12/22 06:09:27;;;;;;;9.63;8.82;;;;;;;5.24;77.22;99630.63;10540087;28;20512;-80
2020/12/22 06:14:31;;;;;;;6.10;5.50;;;;;;;5.49;76.98;99619.75;10542983;28;20143;-79
2020/12/22 06:19:36;;;;;;;7.38;6.88;;;;;;;5.19;77.49;99603.78;10569333;28;20047;-80
2020/12/22 06:24:38;;;;;;;6.55;5.95;;;;;;;5.12;77.66;99601.28;10567338;28;20048;-79
2020/12/22 06:29:45;;;;;;;6.30;5.70;;;;;;;5.37;77.52;99596.53;10563481;28;20055;-78
2020/12/22 06:34:47;;;;;;;6.38;5.88;;;;;;;5.31;77.48;99598.38;10558096;28;20040;-80
2020/12/22 06:39:50;;;;;;;6.40;5.90;;;;;;;5.29;77.10;99591.44;10559703;28;20090;-80
2020/12/22 06:44:51;;;;;;;7.50;6.90;;;;;;;5.24;78.06;99588.94;10577083;28;20044;-80
2020/12/22 06:49:53;;;;;;;8.13;7.43;;;;;;;5.31;77.87;99564.50;10556961;28;20165;-80
2020/12/22 06:54:56;;;;;;;6.60;6.10;;;;;;;5.44;77.54;99565.09;10538958;28;20051;-81
2020/12/22 06:59:58;;;;;;;6.82;6.22;;;;;;;5.51;77.50;99561.50;10556770;28;20050;-82
2020/12/22 07:05:06;;;;;;;8.65;7.97;;;;;;;5.24;78.08;99564.63;10556967;28;20036;-82
2020/12/22 07:10:10;;;;;;;10.05;9.15;;;;;;;5.40;78.40;99568.69;10558171;28;20048;-81
2020/12/22 07:15:12;;;;;;;6.53;6.00;;;;;;;5.66;76.98;99572.53;10546994;28;20048;-80
2020/12/22 07:20:13;;;;;;;7.63;7.03;;;;;;;5.49;77.62;99567.63;10571016;28;20413;-80
2020/12/22 07:25:15;;;;;;;7.80;7.10;;;;;;;5.54;77.50;99560.59;10568775;28;20044;-79
2020/12/22 07:30:17;;;;;;;7.20;6.60;;;;;;;5.60;77.48;99552.66;10569288;28;20166;-81
2020/12/22 07:35:20;;;;;;;8.48;7.78;;;;;;;5.37;78.22;99576.53;10571610;28;20040;-80
2020/12/22 07:40:27;;;;;;;8.57;7.50;;;;;;;5.75;78.12;99575.81;10566900;28;20042;-81
2020/12/22 07:45:28;;;;;;;7.65;7.05;;;;;;;5.93;77.68;99564.22;10571566;28;20048;-80
2020/12/22 07:50:30;;;;;;;7.47;6.88;;;;;;;5.69;78.00;99594.19;10574184;28;20055;-79
2020/12/22 07:55:38;;;;;;;9.70;8.80;;;;;;;5.74;78.45;99594.09;10574098;28;20082;-80
2020/12/22 08:00:40;;;;;;;9.00;8.27;;;;;;;5.85;78.32;99586.94;10562389;28;20082;-82
2020/12/22 08:06:02;;;;;;;8.55;7.85;;;;;;;5.82;78.09;99594.81;10569201;28;20036;-81
2020/12/22 08:11:03;;;;;;;9.93;9.13;;;;;;;6.10;78.10;99586.47;10572188;28;20052;-81
2020/12/22 08:16:05;;;;;;;8.82;8.10;;;;;;;6.14;77.50;99588.13;10587881;28;20040;-80
2020/12/22 08:21:06;;;;;;;9.80;9.00;;;;;;;5.97;78.26;99597.16;10566876;28;20080;-80
2020/12/22 08:26:09;;;;;;;10.93;9.93;;;;;;;5.99;78.34;99605.81;10560787;28;20416;-81
2020/12/22 08:31:14;;;;;;;12.07;10.32;;;;;;;6.33;77.84;99594.69;10538429;28;20083;-81
2020/12/22 08:36:17;;;;;;;9.95;9.07;;;;;;;6.60;77.83;99584.50;10553820;28;20040;-80
2020/12/22 08:41:21;;;;;;;10.27;9.38;;;;;;;6.58;78.12;99577.56;10518685;28;20044;-81
2020/12/22 08:46:22;;;;;;;10.35;9.45;;;;;;;6.58;78.25;99576.72;10556215;28;20032;-80
2020/12/22 08:51:27;;;;;;;11.73;10.63;;;;;;;6.64;78.35;99578.31;10535071;28;20537;-79
2020/12/22 08:56:28;;;;;;;0.70;0.70;;;;;;;8.24;80.94;99570.63;10550988;28;20108;-80
2020/12/22 09:01:38;;;;;;;0.35;0.17;;;;;;;9.96;76.21;99558.81;10551034;28;20044;-80
2020/12/22 09:06:45;;;;;;;0.25;0.10;;;;;;;11.11;71.59;99556.94;10551287;28;20072;-80
2020/12/22 09:11:48;;;;;;;0.10;0.10;;;;;;;11.63;69.16;99554.75;10518675;28;20052;-81
2020/12/22 09:16:54;;;;;;;0.85;0.30;;;;;;;11.93;68.50;99556.97;10534346;28;20134;-80
2020/12/22 09:22:03;;;;;;;0.10;0.00;;;;;;;12.37;66.63;99545.25;10551622;28;20048;-82
2020/12/22 09:27:11;;;;;;;0.10;0.10;;;;;;;12.44;66.66;99545.84;10531162;28;20051;-81
2020/12/22 09:32:12;;;;;;;0.05;0.03;;;;;;;12.45;66.55;99534.34;10536299;28;20116;-80
2020/12/22 09:37:13;;;;;;;0.03;0.00;;;;;;;12.74;65.10;99554.03;10518514;28;20067;-81
2020/12/22 09:42:15;;;;;;;0.10;0.10;;;;;;;12.87;65.28;99557.78;10532142;28;20040;-81
2020/12/22 09:47:17;;;;;;;0.30;0.10;;;;;;;12.93;65.42;99543.47;10535921;28;20071;-79
2020/12/22 09:52:19;;;;;;;0.10;0.10;;;;;;;12.84;64.88;99542.13;10541422;28;20555;-80
2020/12/22 09:57:20;;;;;;;0.17;0.10;;;;;;;13.04;64.49;99556.13;10559217;28;20048;-80
2020/12/22 10:02:21;;;;;;;0.30;0.10;;;;;;;12.77;65.28;99531.94;10558696;28;20154;-80
2020/12/22 10:07:23;;;;;;;0.10;0.10;;;;;;;12.79;65.19;99530.97;10558978;28;20070;-80
2020/12/22 10:12:24;;;;;;;0.10;0.10;;;;;;;12.91;64.99;99534.75;10559141;28;20452;-81
2020/12/22 10:17:25;;;;;;;0.60;0.20;;;;;;;12.85;64.93;99537.72;10559049;28;20048;-80
2020/12/22 10:22:29;;;;;;;1.13;0.10;;;;;;;12.93;65.05;99530.28;10540803;28;20079;-80
2020/12/22 10:27:31;;;;;;;0.10;0.10;;;;;;;13.06;64.71;99527.88;10558807;28;20493;-81
2020/12/22 10:32:32;;;;;;;3.05;0.40;;;;;;;13.03;65.27;99543.84;10558970;28;20472;-81
2020/12/22 10:37:33;;;;;;;0.20;0.20;;;;;;;13.21;64.58;99542.09;10539484;28;20044;-81
2020/12/22 10:42:34;;;;;;;0.20;0.10;;;;;;;13.44;64.02;99556.78;10558523;28;20043;-79
2020/12/22 10:47:35;;;;;;;0.10;0.10;;;;;;;13.51;63.58;99547.63;10557856;28;20086;-81
2020/12/22 10:52:36;;;;;;;0.85;0.10;;;;;;;13.55;63.87;99563.25;10558381;28;20046;-81
2020/12/22 10:57:38;;;;;;;0.05;0.05;;;;;;;13.66;63.39;99551.25;10560425;28;20057;-81
2020/12/22 11:02:40;;;;;;;2.40;0.20;;;;;;;13.63;63.46;99557.53;10559292;28;20131;-80
2020/12/22 11:12:43;;;;;;;0.20;0.00;;;;;;;14.67;60.41;99548.47;10563935;28;20064;-80
2020/12/22 11:17:44;;;;;;;1.10;0.20;;;;;;;16.18;56.67;99554.50;10538192;28;20048;-80
2020/12/22 11:22:47;;;;;;;0.20;0.20;;;;;;;17.10;54.84;99539.72;10558216;28;20043;-81
2020/12/22 11:27:49;;;;;;;0.22;0.10;;;;;;;17.22;54.30;99551.31;10541280;28;20040;-79
2020/12/22 11:32:51;;;;;;;0.10;0.10;;;;;;;16.56;55.59;99552.09;10541665;28;20053;-81
2020/12/22 11:37:52;;;;;;;0.47;0.10;;;;;;;15.37;58.66;99562.91;10560486;28;20044;-81
2020/12/22 11:42:54;;;;;;;0.80;0.15;;;;;;;15.47;58.44;99566.72;10567316;28;20047;-80
2020/12/22 11:47:55;;;;;;;0.28;0.10;;;;;;;14.80;60.54;99568.00;10580731;28;20035;-81
2020/12/22 11:52:56;;;;;;;0.10;0.10;;;;;;;15.17;60.05;99565.88;10574342;28;20052;-81
2020/12/22 11:58:07;;;;;;;0.95;0.10;;;;;;;15.74;58.24;99568.69;10592628;28;20037;-79
2020/12/22 12:03:08;;;;;;;0.03;0.03;;;;;;;15.46;58.49;99565.03;10589911;28;20040;-80
2020/12/22 12:08:09;;;;;;;0.50;0.10;;;;;;;14.92;59.84;99585.81;10588239;28;20056;-78
2020/12/22 12:13:10;;;;;;;0.73;0.10;;;;;;;14.88;60.26;99573.72;10586304;28;20059;-79
2020/12/22 12:18:12;;;;;;;0.17;0.10;;;;;;;14.79;60.15;99583.00;10585531;28;20044;-82
2020/12/22 12:23:13;;;;;;;0.30;0.20;;;;;;;14.78;60.44;99588.38;10563719;28;20047;-81
2020/12/22 12:28:26;;;;;;;0.60;0.20;;;;;;;14.66;60.54;99579.34;10563185;28;20048;-80
2020/12/22 12:33:30;;;;;;;0.30;0.20;;;;;;;14.51;60.85;99606.63;10524669;28;20457;-81
2020/12/22 12:38:31;;;;;;;0.40;0.30;;;;;;;14.64;60.50;99583.84;10548703;28;20457;-81
2020/12/22 12:43:33;;;;;;;0.30;0.20;;;;;;;14.57;60.93;99578.06;10562157;28;20043;-80
2020/12/22 12:48:34;;;;;;;0.30;0.20;;;;;;;14.43;61.56;99585.84;10583492;28;20051;-80
2020/12/22 12:53:40;;;;;;;0.35;0.20;;;;;;;14.37;61.46;99583.56;10587372;28;20152;-80
2020/12/22 12:58:48;;;;;;;0.32;0.20;;;;;;;14.38;61.56;99586.09;10581787;28;20063;-80
2020/12/22 13:03:52;;;;;;;0.45;0.17;;;;;;;14.43;61.15;99590.28;10582727;28;20078;-79
2020/12/22 13:08:53;;;;;;;0.20;0.20;;;;;;;14.34;61.82;99591.66;10585100;28;20122;-81
2020/12/22 13:13:54;;;;;;;0.40;0.20;;;;;;;14.34;61.57;99574.00;10586891;28;20039;-78
2020/12/22 13:18:56;;;;;;;0.20;0.20;;;;;;;14.48;61.58;99575.06;10556081;28;20490;-78
2020/12/22 13:23:57;;;;;;;0.20;0.20;;;;;;;14.42;61.71;99580.66;10548257;28;20032;-77
2020/12/22 13:29:06;;;;;;;0.20;0.15;;;;;;;14.27;61.67;99585.84;10533258;28;20044;-79
2020/12/22 13:34:08;;;;;;;0.32;0.20;;;;;;;14.05;62.39;99580.84;10530766;28;20044;-80
2020/12/22 13:39:09;;;;;;;0.30;0.15;;;;;;;14.05;62.11;99587.94;10530235;28;20048;-78
2020/12/22 13:44:10;;;;;;;0.22;0.20;;;;;;;14.17;62.08;99597.00;10530105;28;20044;-79
2020/12/22 13:49:12;;;;;;;3.42;0.22;;;;;;;13.96;62.50;99613.06;10533799;28;20044;-80
2020/12/22 13:54:19;;;;;;;0.22;0.20;;;;;;;14.05;62.59;99625.78;10528525;28;20075;-81
2020/12/22 13:59:29;;;;;;;0.87;0.20;;;;;;;13.98;62.78;99611.19;10545555;28;20052;-77
2020/12/22 14:04:59;;;;;;;0.60;0.30;;;;;;;14.00;62.44;99627.81;10554921;28;20512;-79
2020/12/22 14:10:00;;;;;;;0.40;0.40;;;;;;;13.78;63.04;99629.88;10523983;28;20192;-78
2020/12/22 14:15:02;;;;;;;0.55;0.20;;;;;;;13.80;62.98;99638.56;10553633;28;20127;-79
2020/12/22 14:20:04;;;;;;;0.22;0.20;;;;;;;13.76;63.01;99637.84;10548282;28;20130;-78
2020/12/22 14:25:10;;;;;;;0.83;0.60;;;;;;;13.78;63.06;99640.44;10550734;28;20075;-78
2020/12/22 14:30:12;;;;;;;1.15;0.30;;;;;;;13.84;62.77;99646.25;10532853;28;20486;-77
2020/12/22 14:35:13;;;;;;;0.38;0.30;;;;;;;13.77;63.42;99657.22;10549714;28;20543;-78
2020/12/22 14:40:16;;;;;;;0.47;0.30;;;;;;;13.69;63.34;99654.13;10556032;28;20119;-78
2020/12/22 14:45:20;;;;;;;0.50;0.20;;;;;;;13.78;62.85;99670.34;10553272;28;20036;-79
2020/12/22 14:50:22;;;;;;;0.30;0.10;;;;;;;13.82;64.26;99674.53;10551458;28;20143;-78
2020/12/22 14:55:26;;;;;;;0.30;0.30;;;;;;;13.47;65.59;99678.09;10554594;28;20100;-79
2020/12/22 15:00:27;;;;;;;1.08;0.30;;;;;;;13.48;64.87;99688.56;10536072;28;20052;-78
2020/12/22 15:05:34;;;;;;;0.20;0.20;;;;;;;13.40;64.84;99688.09;10533498;28;20040;-78
2020/12/22 15:10:35;;;;;;;0.40;0.20;;;;;;;13.53;64.52;99689.19;10552713;28;20040;-79
2020/12/22 15:15:36;;;;;;;0.20;0.10;;;;;;;13.33;65.18;99702.53;10518994;28;20040;-79
2020/12/22 15:20:38;;;;;;;0.30;0.30;;;;;;;13.29;65.15;99717.66;10540893;28;20083;-81
2020/12/22 15:25:42;;;;;;;0.20;0.20;;;;;;;13.34;65.26;99725.34;10554187;28;20171;-79
2020/12/22 15:30:44;;;;;;;0.52;0.30;;;;;;;13.24;65.57;99730.22;10534115;28;20052;-79
2020/12/22 15:35:50;;;;;;;0.85;0.30;;;;;;;13.07;66.57;99744.16;10553568;28;20040;-78
2020/12/22 15:40:53;;;;;;;;;;;;;;;12.77;68.86;99750.84;10565828;28;20052;-80
2020/12/22 15:45:55;;;;;;;1.23;0.30;;;;;;;12.78;69.06;99752.56;10531880;28;19920;-78
2020/12/22 15:50:58;;;;;;;1.27;0.43;;;;;;;12.68;69.51;99749.50;10553804;28;20044;-78
2020/12/22 15:55:59;;;;;;;2.05;0.30;;;;;;;12.67;68.88;99760.13;10553265;28;20048;-78
2020/12/22 16:01:00;;;;;;;0.73;0.20;;;;;;;12.65;68.33;99764.59;10531774;28;20052;-80
2020/12/22 16:06:02;;;;;;;0.57;0.28;;;;;;;12.73;67.59;99767.75;10531616;28;20081;-79
2020/12/22 16:11:04;;;;;;;0.82;0.38;;;;;;;12.70;67.66;99765.22;10548057;28;20493;-80
2020/12/22 16:16:06;;;;;;;1.30;0.30;;;;;;;12.68;67.78;99761.81;10549573;28;20032;-79
2020/12/22 16:21:13;;;;;;;0.90;0.35;;;;;;;12.61;67.39;99762.06;10533766;28;20130;-79
2020/12/22 16:26:19;;;;;;;0.82;0.40;;;;;;;12.73;66.93;99768.59;10548248;28;20059;-78
2020/12/22 16:31:20;;;;;;;0.47;0.40;;;;;;;12.73;66.70;99778.28;10549209;28;20047;-78
2020/12/22 16:36:25;;;;;;;1.17;0.68;;;;;;;12.60;66.92;99788.53;10530216;28;20320;-77
2020/12/22 16:41:29;;;;;;;1.55;0.50;;;;;;;12.67;67.10;99802.31;10533389;28;20052;-78
2020/12/22 16:46:30;;;;;;;1.30;0.40;;;;;;;12.69;67.50;99800.44;10533794;28;20097;-77
2020/12/22 16:51:31;;;;;;;0.57;0.40;;;;;;;12.52;68.17;99803.81;10531989;28;20048;-78
2020/12/22 16:56:33;;;;;;;1.35;0.75;;;;;;;12.41;68.39;99808.72;10550182;28;20512;-80
2020/12/22 17:01:48;;;;;;;1.08;0.57;;;;;;;12.32;67.90;99805.53;10549052;28;20485;-79
2020/12/22 17:06:49;;;;;;;1.60;0.80;;;;;;;12.42;67.28;99800.72;10530633;28;20117;-79
2020/12/22 17:11:50;;;;;;;1.08;0.82;;;;;;;12.19;67.28;99808.75;10529896;28;20079;-79
2020/12/22 17:16:53;;;;;;;1.67;0.70;;;;;;;12.13;67.35;99823.06;10528619;28;20040;-79
2020/12/22 17:21:56;;;;;;;1.65;0.70;;;;;;;12.00;67.59;99821.84;10532467;28;20052;-80
2020/12/22 17:26:57;;;;;;;0.88;0.50;;;;;;;12.18;66.79;99828.13;10539437;28;20389;-79
2020/12/22 17:32:03;;;;;;;1.17;0.60;;;;;;;12.11;66.88;99830.16;10539600;28;20052;-82
2020/12/22 17:37:05;;;;;;;0.97;0.50;;;;;;;12.10;67.02;99824.03;10558440;28;20062;-82
2020/12/22 17:42:09;;;;;;;1.35;0.70;;;;;;;12.15;66.60;99822.97;10560542;28;20048;-82
2020/12/22 17:47:10;;;;;;;1.60;0.80;;;;;;;12.18;66.71;99828.97;10539253;28;20082;-82
2020/12/22 17:52:11;;;;;;;1.10;0.50;;;;;;;12.04;66.97;99832.19;10544976;28;20044;-82
2020/12/22 17:57:12;;;;;;;1.20;0.70;;;;;;;11.81;67.38;99825.16;10542106;28;20033;-83
2020/12/22 18:02:33;;;;;;;1.38;0.82;;;;;;;11.86;67.00;99833.78;10540547;28;20063;-82
2020/12/22 18:07:34;;;;;;;0.60;0.60;;;;;;;11.89;66.79;99827.53;10558250;28;20064;-82
2020/12/22 18:12:36;;;;;;;0.95;0.50;;;;;;;11.80;67.03;99841.88;10566589;28;20084;-82
2020/12/22 18:17:38;;;;;;;1.67;0.70;;;;;;;11.94;66.94;99848.41;10531811;28;20044;-84
2020/12/22 18:22:39;;;;;;;2.53;0.85;;;;;;;11.79;67.19;99834.91;10567168;28;20069;-83
2020/12/22 18:27:43;;;;;;;1.40;0.60;;;;;;;11.79;67.47;99831.44;10576642;28;20105;-83
2020/12/22 18:32:44;;;;;;;0.80;0.60;;;;;;;11.73;67.43;99839.56;10569091;28;20067;-82
2020/12/22 18:37:45;;;;;;;0.85;0.60;;;;;;;11.73;67.55;99844.81;10551956;28;20040;-83
2020/12/22 18:42:48;;;;;;;0.60;0.50;;;;;;;11.63;67.90;99853.09;10570794;28;20032;-82
2020/12/22 18:47:49;;;;;;;1.70;0.52;;;;;;;11.62;67.79;99858.41;10570077;28;20070;-85
2020/12/22 18:52:52;;;;;;;0.70;0.70;;;;;;;11.54;68.19;99863.97;10551532;28;20047;-83
2020/12/22 18:57:53;;;;;;;2.05;0.88;;;;;;;11.56;68.05;99864.78;10570302;28;20044;-82
2020/12/22 19:02:55;;;;;;;1.33;0.68;;;;;;;11.58;67.90;99865.56;10555647;28;20048;-81
2020/12/22 19:07:56;;;;;;;1.08;0.70;;;;;;;11.58;67.91;99877.88;10577660;28;20105;-80
2020/12/22 19:12:57;;;;;;;1.50;0.60;;;;;;;11.60;67.89;99871.66;10594540;28;20036;-81
2020/12/22 19:17:58;;;;;;;0.70;0.63;;;;;;;11.53;68.31;99883.31;10593580;28;20059;-81
2020/12/22 19:22:59;;;;;;;0.90;0.52;;;;;;;11.63;67.88;99879.41;10576221;28;20052;-80
2020/12/22 19:28:01;;;;;;;1.17;0.50;;;;;;;11.61;68.04;99883.88;10576289;28;20048;-81
2020/12/22 19:33:02;;;;;;;1.20;0.60;;;;;;;11.58;68.01;99891.91;10589919;28;20039;-81
2020/12/22 19:38:03;;;;;;;0.85;0.68;;;;;;;11.57;68.17;99895.44;10570392;28;20044;-81
2020/12/22 19:43:05;;;;;;;0.80;0.57;;;;;;;11.60;68.13;99890.06;10558988;28;20040;-82
2020/12/22 19:48:06;;;;;;;1.95;0.70;;;;;;;11.66;67.88;99891.59;10562842;28;20048;-82
2020/12/22 19:53:07;;;;;;;2.05;1.60;;;;;;;11.55;67.99;99901.69;10583843;28;20069;-83
2020/12/22 19:58:08;;;;;;;1.75;0.70;;;;;;;11.54;68.00;99908.72;10566576;28;20090;-80
2020/12/22 20:03:10;;;;;;;1.08;0.68;;;;;;;11.60;67.87;99911.13;10567600;28;20048;-82
2020/12/22 20:08:11;;;;;;;0.98;0.77;;;;;;;11.50;68.11;99919.44;10564215;28;20451;-83
2020/12/22 20:13:12;;;;;;;1.20;0.90;;;;;;;11.47;68.50;99924.81;10544711;28;20542;-83
2020/12/22 20:18:13;;;;;;;1.00;0.70;;;;;;;11.54;68.16;99923.66;10545984;28;20044;-84
2020/12/22 20:23:15;;;;;;;1.40;0.80;;;;;;;11.39;68.68;99937.41;10546203;28;20052;-83
2020/12/22 20:28:17;;;;;;;1.75;0.80;;;;;;;11.45;68.38;99932.75;10562374;28;20102;-83
2020/12/22 20:33:30;;;;;;;2.03;0.70;;;;;;;11.42;68.71;99937.28;10560400;28;20050;-83
2020/12/22 20:38:31;;;;;;;0.50;0.50;;;;;;;11.63;68.21;99937.34;10564710;28;20086;-82
2020/12/22 20:43:33;;;;;;;1.35;0.90;;;;;;;11.62;68.44;99937.41;10526909;28;20036;-83
2020/12/22 20:48:38;;;;;;;1.60;0.80;;;;;;;11.39;68.96;99932.13;10544541;28;20040;-82
2020/12/22 20:53:39;;;;;;;1.35;0.95;;;;;;;11.23;69.40;99935.31;10561435;28;20047;-82
2020/12/22 20:58:41;;;;;;;1.70;1.08;;;;;;;10.97;70.81;99957.28;10542769;28;20043;-82
2020/12/22 21:03:46;;;;;;;1.77;0.98;;;;;;;10.99;70.74;99960.72;10562895;28;20464;-82
2020/12/22 21:08:48;;;;;;;1.48;1.00;;;;;;;10.90;70.81;99966.31;10559984;28;20044;-81
2020/12/22 21:13:49;;;;;;;1.65;1.10;;;;;;;10.81;71.24;99961.34;10523912;28;20142;-83
2020/12/22 21:18:50;;;;;;;1.48;1.38;;;;;;;10.88;71.13;99954.97;10556315;28;20044;-81
2020/12/22 21:24:02;;;;;;;2.10;1.40;;;;;;;10.73;71.22;99973.91;10525741;28;20048;-83
2020/12/22 21:29:04;;;;;;;1.63;1.30;;;;;;;10.53;72.23;99966.66;10560140;28;20101;-81
2020/12/22 21:34:06;;;;;;;1.40;1.27;;;;;;;10.61;71.93;99954.13;10561653;28;20078;-83
2020/12/22 21:39:08;;;;;;;1.98;1.20;;;;;;;10.51;71.92;99956.19;10543099;28;20055;-81
2020/12/22 21:44:09;;;;;;;1.80;1.60;;;;;;;10.51;72.18;99958.81;10547990;28;20091;-81
2020/12/22 21:49:11;;;;;;;1.70;1.60;;;;;;;10.36;72.25;99967.22;10554181;28;20048;-81
2020/12/22 21:54:12;;;;;;;2.03;1.40;;;;;;;10.28;72.88;99943.81;10570836;28;20036;-82
2020/12/22 21:59:15;;;;;;;2.15;1.63;;;;;;;10.36;72.69;99946.19;10552823;28;20059;-80
2020/12/22 22:04:24;;;;;;;1.70;1.48;;;;;;;10.18;73.12;99962.50;10571072;28;20044;-81
2020/12/22 22:09:26;;;;;;;2.33;2.13;;;;;;;10.58;72.12;99975.25;10553013;28;20044;-80
2020/12/22 22:14:27;;;;;;;2.50;1.88;;;;;;;10.28;72.18;99982.38;10580695;28;20040;-81
2020/12/22 22:19:28;;;;;;;3.15;2.50;;;;;;;9.94;73.09;99990.38;10556076;28;20059;-80
2020/12/22 22:24:29;;;;;;;3.10;2.80;;;;;;;9.81;73.71;99997.75;10540157;28;20044;-82
2020/12/22 22:29:31;;;;;;;2.90;1.90;;;;;;;10.11;73.17;100004.72;10575345;28;20064;-80
2020/12/22 22:34:43;;;;;;;2.05;1.80;;;;;;;10.39;72.26;100017.03;10572758;28;20047;-82
2020/12/22 22:39:44;;;;;;;5.97;2.83;;;;;;;9.98;73.07;100016.50;10573898;28;20036;-82
2020/12/22 22:44:48;;;;;;;5.50;4.10;;;;;;;9.81;74.17;100021.38;10565863;28;20055;-81
2020/12/22 22:49:49;;;;;;;5.45;4.93;;;;;;;10.04;73.88;100005.78;10588856;28;20048;-82
2020/12/22 22:54:50;;;;;;;4.72;3.30;;;;;;;10.11;73.54;99996.84;10570447;28;20052;-82
2020/12/22 22:59:52;;;;;;;3.92;3.63;;;;;;;9.92;74.17;99990.44;10596404;28;20028;-80
2020/12/22 23:05:02;;;;;;;3.05;2.70;;;;;;;10.15;73.72;99986.25;10597024;28;20039;-81
2020/12/22 23:10:04;;;;;;;2.92;2.70;;;;;;;10.02;74.25;99983.97;10596584;28;20052;-81
2020/12/22 23:15:07;;;;;;;3.65;3.35;;;;;;;9.86;74.32;99978.31;10576386;28;20075;-81
2020/12/22 23:20:09;;;;;;;4.03;3.80;;;;;;;9.80;74.84;99980.28;10568044;28;20375;-81
2020/12/22 23:25:10;;;;;;;4.18;3.88;;;;;;;9.92;74.43;99966.81;10547360;28;20045;-80
2020/12/22 23:30:11;;;;;;;4.57;4.28;;;;;;;9.96;74.37;99978.94;10567470;28;20050;-81